createdAt,value
2017-01-23T00:00:25.932Z,16.4
2017-01-23T00:01:34.924Z,16.45
2017-01-23T00:02:43.906Z,16.45
2017-01-23T00:03:52.913Z,16.44
2017-01-23T00:05:01.898Z,16.3
2017-01-23T00:06:10.892Z,16.38
2017-01-23T00:07:19.886Z,16.37
2017-01-23T00:08:28.864Z,16.25
2017-01-23T00:09:37.841Z,16.25
2017-01-23T00:10:46.832Z,16.23
2017-01-23T00:11:55.820Z,16.17
2017-01-23T00:13:04.815Z,16.11
2017-01-23T00:14:13.801Z,16.14
2017-01-23T00:15:22.779Z,16.15
2017-01-23T00:16:31.764Z,16.22
2017-01-23T00:17:40.758Z,16.2
2017-01-23T00:18:49.748Z,16.07
2017-01-23T00:19:58.729Z,16.1
2017-01-23T00:21:07.720Z,15.99
2017-01-23T00:22:16.696Z,15.99
2017-01-23T00:23:25.682Z,15.91
2017-01-23T00:24:34.672Z,15.82
2017-01-23T00:25:43.659Z,15.84
2017-01-23T00:26:52.639Z,15.82
2017-01-23T00:28:01.630Z,15.69
2017-01-23T00:29:10.640Z,15.66
2017-01-23T00:30:19.627Z,15.71
2017-01-23T00:31:28.612Z,15.61
2017-01-23T00:32:37.601Z,15.73
2017-01-23T00:33:46.577Z,15.74
2017-01-23T00:34:55.585Z,15.63
2017-01-23T00:36:04.567Z,15.76
2017-01-23T00:37:13.553Z,15.55
2017-01-23T00:38:22.564Z,15.37
2017-01-23T00:39:31.545Z,15.42
2017-01-23T00:40:40.525Z,15.34
2017-01-23T00:41:49.518Z,15.41
2017-01-23T00:42:58.508Z,15.42
2017-01-23T00:44:07.489Z,15.49
2017-01-23T00:45:16.482Z,15.45
2017-01-23T00:46:25.472Z,15.42
2017-01-23T00:47:34.456Z,15.41
2017-01-23T00:48:43.449Z,15.26
2017-01-23T00:49:52.427Z,15.34
2017-01-23T00:51:01.409Z,15.27
2017-01-23T00:52:10.399Z,15.08
2017-01-23T00:53:19.396Z,15.18
2017-01-23T00:54:28.381Z,15.23
2017-01-23T00:55:37.407Z,15.21
2017-01-23T00:56:46.384Z,15.3
2017-01-23T00:57:55.358Z,15.21
2017-01-23T00:59:04.350Z,15.15
2017-01-23T01:00:13.339Z,15.05
2017-01-23T01:01:22.320Z,14.86
2017-01-23T01:02:31.315Z,14.79
2017-01-23T01:03:40.321Z,14.82
2017-01-23T01:04:49.305Z,14.82
2017-01-23T01:05:58.297Z,14.8
2017-01-23T01:07:07.299Z,14.79
2017-01-23T01:08:16.298Z,14.93
2017-01-23T01:09:25.284Z,14.91
2017-01-23T01:10:34.266Z,14.91
2017-01-23T01:11:43.241Z,14.88
2017-01-23T01:12:52.231Z,14.82
2017-01-23T01:14:01.214Z,14.88
2017-01-23T01:15:10.253Z,14.91
2017-01-23T01:16:19.249Z,14.8
2017-01-23T01:17:28.221Z,14.84
2017-01-23T01:18:37.232Z,14.65
2017-01-23T01:19:46.208Z,14.6
2017-01-23T01:20:55.191Z,14.65
2017-01-23T01:22:04.204Z,14.62
2017-01-23T01:23:13.204Z,14.7
2017-01-23T01:24:22.178Z,14.65
2017-01-23T01:25:31.169Z,14.59
2017-01-23T01:26:40.136Z,14.59
2017-01-23T01:27:49.126Z,14.68
2017-01-23T01:28:58.113Z,14.6
2017-01-23T01:30:07.517Z,14.56
2017-01-23T01:31:16.500Z,14.62
2017-01-23T01:32:25.505Z,14.53
2017-01-23T01:33:34.490Z,14.41
2017-01-23T01:34:43.466Z,14.41
2017-01-23T01:35:52.463Z,14.49
2017-01-23T01:37:01.444Z,14.38
2017-01-23T01:38:10.424Z,14.44
2017-01-23T01:39:19.402Z,14.42
2017-01-23T01:40:28.394Z,14.38
2017-01-23T01:41:37.378Z,14.39
2017-01-23T01:42:46.377Z,14.41
2017-01-23T01:43:55.373Z,14.3
2017-01-23T01:45:04.361Z,14.35
2017-01-23T01:46:13.350Z,14.04
2017-01-23T01:47:22.337Z,14.13
2017-01-23T01:48:31.323Z,14.17
2017-01-23T01:49:40.302Z,14.04
2017-01-23T01:50:49.290Z,14.1
2017-01-23T01:51:58.277Z,13.99
2017-01-23T01:53:07.250Z,14.05
2017-01-23T01:54:16.241Z,14.09
2017-01-23T01:55:25.213Z,13.99
2017-01-23T01:56:34.202Z,14.01
2017-01-23T01:57:43.183Z,14.01
2017-01-23T01:58:52.175Z,14.02
2017-01-23T02:00:01.150Z,14.01
2017-01-23T02:01:10.143Z,13.81
2017-01-23T02:02:19.119Z,13.95
2017-01-23T02:03:28.111Z,13.99
2017-01-23T02:04:37.085Z,14.05
2017-01-23T02:05:46.086Z,13.95
2017-01-23T02:06:55.069Z,13.86
2017-01-23T02:08:04.126Z,13.69
2017-01-23T02:09:13.121Z,13.51
2017-01-23T02:10:22.098Z,13.73
2017-01-23T02:11:31.089Z,13.66
2017-01-23T02:12:40.077Z,13.76
2017-01-23T02:13:49.104Z,13.76
2017-01-23T02:14:58.094Z,13.58
2017-01-23T02:16:07.087Z,13.68
2017-01-23T02:17:16.078Z,13.72
2017-01-23T02:18:25.087Z,13.76
2017-01-23T02:19:34.079Z,13.72
2017-01-23T02:20:43.067Z,13.66
2017-01-23T02:21:52.055Z,13.56
2017-01-23T02:23:01.042Z,13.65
2017-01-23T02:24:10.017Z,13.68
2017-01-23T02:25:18.988Z,13.59
2017-01-23T02:26:27.993Z,13.5
2017-01-23T02:27:36.986Z,13.59
2017-01-23T02:28:45.954Z,13.49
2017-01-23T02:29:54.944Z,13.46
2017-01-23T02:31:03.927Z,13.36
2017-01-23T02:32:12.913Z,13.25
2017-01-23T02:33:21.898Z,13.21
2017-01-23T02:34:30.884Z,13.17
2017-01-23T02:35:39.863Z,13.27
2017-01-23T02:36:48.842Z,13.25
2017-01-23T02:37:57.838Z,13.36
2017-01-23T02:39:06.821Z,13.4
2017-01-23T02:40:15.812Z,13.31
2017-01-23T02:41:24.799Z,13.37
2017-01-23T02:42:33.786Z,13.3
2017-01-23T02:43:42.799Z,13.43
2017-01-23T02:44:51.771Z,13.32
2017-01-23T02:46:00.754Z,13.36
2017-01-23T02:47:09.732Z,13.27
2017-01-23T02:48:18.722Z,13.07
2017-01-23T02:49:27.692Z,12.94
2017-01-23T02:50:36.680Z,13.12
2017-01-23T02:51:45.670Z,13.1
2017-01-23T02:52:54.817Z,13.13
2017-01-23T02:54:03.790Z,13.18
2017-01-23T02:55:12.775Z,13.07
2017-01-23T02:56:21.749Z,13.18
2017-01-23T02:57:30.727Z,13.15
2017-01-23T02:58:39.724Z,13.07
2017-01-23T02:59:48.705Z,12.88
2017-01-23T03:00:57.698Z,12.91
2017-01-23T03:02:06.680Z,12.99
2017-01-23T03:03:15.658Z,12.78
2017-01-23T03:04:24.645Z,12.87
2017-01-23T03:05:33.635Z,12.9
2017-01-23T03:06:42.631Z,13.09
2017-01-23T03:07:51.619Z,13.1
2017-01-23T03:09:00.618Z,13.1
2017-01-23T03:10:09.586Z,12.84
2017-01-23T03:11:18.573Z,12.91
2017-01-23T03:12:27.567Z,13.02
2017-01-23T03:13:36.547Z,12.91
2017-01-23T03:14:45.525Z,12.87
2017-01-23T03:15:54.510Z,12.82
2017-01-23T03:17:03.501Z,12.76
2017-01-23T03:18:12.477Z,12.65
2017-01-23T03:19:21.470Z,12.6
2017-01-23T03:20:30.467Z,12.63
2017-01-23T03:21:39.467Z,12.8
2017-01-23T03:22:48.502Z,12.63
2017-01-23T03:23:57.487Z,12.57
2017-01-23T03:25:06.472Z,12.49
2017-01-23T03:26:15.448Z,12.57
2017-01-23T03:27:24.438Z,12.6
2017-01-23T03:28:33.417Z,12.57
2017-01-23T03:29:42.409Z,12.63
2017-01-23T03:30:51.384Z,12.76
2017-01-23T03:32:00.358Z,12.67
2017-01-23T03:33:09.356Z,12.48
2017-01-23T03:34:18.343Z,12.42
2017-01-23T03:35:27.327Z,12.27
2017-01-23T03:36:36.306Z,12.16
2017-01-23T03:37:45.293Z,12.18
2017-01-23T03:38:54.267Z,12.21
2017-01-23T03:40:03.256Z,12.3
2017-01-23T03:41:12.663Z,12.42
2017-01-23T03:42:21.628Z,12.32
2017-01-23T03:43:30.623Z,12.29
2017-01-23T03:44:39.599Z,12.24
2017-01-23T03:45:48.587Z,12.15
2017-01-23T03:46:57.573Z,12.24
2017-01-23T03:48:06.555Z,12.15
2017-01-23T03:49:15.539Z,12.14
2017-01-23T03:50:24.524Z,12.04
2017-01-23T03:51:33.511Z,11.99
2017-01-23T03:52:42.683Z,12.01
2017-01-23T03:53:51.841Z,12.12
2017-01-23T03:55:00.813Z,12.14
2017-01-23T03:56:09.814Z,12.12
2017-01-23T03:57:18.803Z,12.15
2017-01-23T03:58:27.771Z,12.29
2017-01-23T03:59:36.754Z,12.3
2017-01-23T04:00:45.739Z,12.42
2017-01-23T04:01:54.726Z,12.3
2017-01-23T04:03:03.717Z,12.14
2017-01-23T04:04:12.705Z,12.07
2017-01-23T04:05:21.677Z,12.09
2017-01-23T04:06:30.668Z,12
2017-01-23T04:07:39.662Z,11.9
2017-01-23T04:08:48.644Z,11.86
2017-01-23T04:09:57.613Z,11.82
2017-01-23T04:11:06.601Z,11.9
2017-01-23T04:12:15.579Z,11.82
2017-01-23T04:13:24.572Z,11.82
2017-01-23T04:14:33.557Z,12.01
2017-01-23T04:15:42.544Z,11.94
2017-01-23T04:16:51.521Z,11.88
2017-01-23T04:18:00.501Z,11.93
2017-01-23T04:19:09.484Z,11.82
2017-01-23T04:20:18.461Z,11.74
2017-01-23T04:21:27.445Z,11.65
2017-01-23T04:22:36.421Z,11.75
2017-01-23T04:23:45.406Z,11.73
2017-01-23T04:24:54.405Z,11.71
2017-01-23T04:26:03.388Z,11.67
2017-01-23T04:27:12.359Z,11.71
2017-01-23T04:28:21.345Z,11.7
2017-01-23T04:29:30.317Z,11.57
2017-01-23T04:30:39.293Z,11.7
2017-01-23T04:31:48.288Z,11.62
2017-01-23T04:32:57.271Z,11.56
2017-01-23T04:34:06.243Z,11.62
2017-01-23T04:35:15.234Z,11.62
2017-01-23T04:36:24.207Z,11.74
2017-01-23T04:37:33.199Z,11.74
2017-01-23T04:38:42.183Z,11.74
2017-01-23T04:39:51.164Z,11.78
2017-01-23T04:41:00.151Z,11.78
2017-01-23T04:42:09.160Z,11.73
2017-01-23T04:43:18.136Z,11.59
2017-01-23T04:44:27.114Z,11.52
2017-01-23T04:45:36.102Z,11.65
2017-01-23T04:46:45.083Z,11.55
2017-01-23T04:47:54.072Z,11.57
2017-01-23T04:49:03.064Z,11.68
2017-01-23T04:50:12.038Z,11.7
2017-01-23T04:51:21.062Z,11.62
2017-01-23T04:52:30.038Z,11.56
2017-01-23T04:53:39.025Z,11.52
2017-01-23T04:54:48.012Z,11.53
2017-01-23T04:55:57.004Z,11.44
2017-01-23T04:57:05.997Z,11.42
2017-01-23T04:58:14.976Z,11.52
2017-01-23T04:59:23.960Z,11.48
2017-01-23T05:00:32.938Z,11.44
2017-01-23T05:01:41.925Z,11.49
2017-01-23T05:02:50.911Z,11.32
2017-01-23T05:03:59.903Z,11.44
2017-01-23T05:05:08.899Z,11.49
2017-01-23T05:06:17.903Z,11.48
2017-01-23T05:07:26.877Z,11.52
2017-01-23T05:08:35.864Z,11.49
2017-01-23T05:09:44.858Z,11.48
2017-01-23T05:10:53.852Z,11.52
2017-01-23T05:12:02.835Z,11.59
2017-01-23T05:13:11.820Z,11.5
2017-01-23T05:14:20.807Z,11.53
2017-01-23T05:15:29.783Z,11.6
2017-01-23T05:16:38.769Z,11.5
2017-01-23T05:17:47.748Z,11.49
2017-01-23T05:18:56.724Z,11.6
2017-01-23T05:20:05.711Z,11.52
2017-01-23T05:21:14.693Z,11.6
2017-01-23T05:22:23.679Z,11.53
2017-01-23T05:23:32.662Z,11.53
2017-01-23T05:24:41.643Z,11.49
2017-01-23T05:25:50.628Z,11.49
2017-01-23T05:26:59.621Z,11.3
2017-01-23T05:28:08.596Z,11.34
2017-01-23T05:29:17.576Z,11.32
2017-01-23T05:30:26.563Z,11.49
2017-01-23T05:31:35.549Z,11.35
2017-01-23T05:32:44.540Z,11.41
2017-01-23T05:33:53.517Z,11.38
2017-01-23T05:35:02.528Z,11.45
2017-01-23T05:36:11.502Z,11.49
2017-01-23T05:37:20.491Z,11.38
2017-01-23T05:38:29.483Z,11.24
2017-01-23T05:39:38.460Z,11.34
2017-01-23T05:40:47.442Z,11.24
2017-01-23T05:41:56.429Z,11.37
2017-01-23T05:43:05.408Z,11.41
2017-01-23T05:44:14.423Z,11.44
2017-01-23T05:45:23.403Z,11.35
2017-01-23T05:46:32.383Z,11.44
2017-01-23T05:47:41.353Z,11.35
2017-01-23T05:48:50.349Z,11.38
2017-01-23T05:49:59.322Z,11.37
2017-01-23T05:51:08.316Z,11.41
2017-01-23T05:52:17.301Z,11.3
2017-01-23T05:53:26.285Z,11.4
2017-01-23T05:54:35.260Z,11.35
2017-01-23T05:55:44.261Z,11.4
2017-01-23T05:56:53.238Z,11.3
2017-01-23T05:58:02.224Z,11.35
2017-01-23T05:59:11.222Z,11.37
2017-01-23T06:00:20.209Z,11.34
2017-01-23T06:01:29.181Z,11.4
2017-01-23T06:02:38.169Z,11.34
2017-01-23T06:03:47.157Z,11.3
2017-01-23T06:04:56.139Z,11.45
2017-01-23T06:06:05.132Z,11.94
2017-01-23T06:07:14.099Z,12.44
2017-01-23T06:08:23.094Z,12.78
2017-01-23T06:09:32.077Z,13.1
2017-01-23T06:10:41.061Z,13.2
2017-01-23T06:11:50.047Z,13.3
2017-01-23T06:12:59.026Z,13.43
2017-01-23T06:14:08.016Z,13.65
2017-01-23T06:15:17.019Z,13.79
2017-01-23T06:16:26.006Z,13.69
2017-01-23T06:17:35.001Z,13.74
2017-01-23T06:18:43.981Z,13.87
2017-01-23T06:19:52.963Z,13.79
2017-01-23T06:21:01.940Z,13.89
2017-01-23T06:22:10.936Z,14.04
2017-01-23T06:23:19.919Z,14.02
2017-01-23T06:24:28.904Z,14.02
2017-01-23T06:25:37.899Z,13.64
2017-01-23T06:26:46.882Z,13.37
2017-01-23T06:27:55.863Z,13.27
2017-01-23T06:29:04.863Z,13.43
2017-01-23T06:30:13.858Z,13.66
2017-01-23T06:31:22.840Z,13.76
2017-01-23T06:32:31.813Z,13.91
2017-01-23T06:33:40.804Z,13.94
2017-01-23T06:34:49.783Z,13.97
2017-01-23T06:35:58.770Z,13.98
2017-01-23T06:37:07.750Z,14.04
2017-01-23T06:38:16.732Z,14.09
2017-01-23T06:39:25.722Z,14.09
2017-01-23T06:40:34.701Z,14.19
2017-01-23T06:41:43.684Z,14.22
2017-01-23T06:42:52.657Z,14.12
2017-01-23T06:44:01.639Z,14.17
2017-01-23T06:45:10.620Z,14.19
2017-01-23T06:46:19.610Z,14.24
2017-01-23T06:47:28.595Z,14.26
2017-01-23T06:48:37.587Z,14.31
2017-01-23T06:49:46.591Z,14.22
2017-01-23T06:50:55.572Z,14.3
2017-01-23T06:52:04.570Z,14.39
2017-01-23T06:53:13.549Z,14.39
2017-01-23T06:54:22.526Z,14.42
2017-01-23T06:55:31.514Z,14.38
2017-01-23T06:56:40.499Z,14.41
2017-01-23T06:57:49.476Z,14.44
2017-01-23T06:58:58.456Z,14.49
2017-01-23T07:00:07.446Z,14.39
2017-01-23T07:01:16.441Z,14.5
2017-01-23T07:02:25.426Z,14.52
2017-01-23T07:03:34.828Z,14.6
2017-01-23T07:04:43.802Z,14.52
2017-01-23T07:05:52.795Z,14.59
2017-01-23T07:07:01.783Z,14.62
2017-01-23T07:08:10.763Z,14.63
2017-01-23T07:09:19.740Z,14.8
2017-01-23T07:10:28.721Z,14.88
2017-01-23T07:11:37.716Z,14.88
2017-01-23T07:12:46.711Z,14.96
2017-01-23T07:13:55.726Z,14.9
2017-01-23T07:15:04.715Z,14.91
2017-01-23T07:16:13.705Z,14.87
2017-01-23T07:17:22.692Z,14.94
2017-01-23T07:18:31.675Z,14.87
2017-01-23T07:19:40.689Z,15.01
2017-01-23T07:20:49.665Z,14.93
2017-01-23T07:21:58.656Z,14.96
2017-01-23T07:23:07.681Z,14.88
2017-01-23T07:24:16.668Z,14.93
2017-01-23T07:25:25.656Z,14.9
2017-01-23T07:26:34.648Z,14.86
2017-01-23T07:27:43.624Z,14.78
2017-01-23T07:28:52.602Z,14.78
2017-01-23T07:30:01.599Z,14.8
2017-01-23T07:31:10.635Z,14.82
2017-01-23T07:32:19.612Z,14.78
2017-01-23T07:33:28.606Z,14.96
2017-01-23T07:34:37.579Z,15
2017-01-23T07:35:46.567Z,15
2017-01-23T07:36:55.568Z,15.05
2017-01-23T07:38:04.580Z,15.01
2017-01-23T07:39:13.574Z,15.06
2017-01-23T07:40:22.564Z,15.04
2017-01-23T07:41:31.548Z,14.97
2017-01-23T07:42:40.543Z,15
2017-01-23T07:43:49.535Z,15.05
2017-01-23T07:44:58.517Z,15.01
2017-01-23T07:46:07.497Z,15.01
2017-01-23T07:47:16.526Z,15.05
2017-01-23T07:48:25.507Z,15.05
2017-01-23T07:49:34.493Z,15.16
2017-01-23T07:50:43.485Z,15.16
2017-01-23T07:51:53.410Z,15.12
2017-01-23T07:53:02.472Z,15.16
2017-01-23T07:54:11.458Z,15.09
2017-01-23T07:55:20.445Z,15.08
2017-01-23T07:56:29.438Z,15.12
2017-01-23T07:57:38.409Z,15.12
2017-01-23T07:58:47.396Z,15.12
2017-01-23T07:59:56.396Z,15.16
2017-01-23T08:01:05.383Z,15.12
2017-01-23T08:02:14.360Z,15.12
2017-01-23T08:03:23.352Z,15.13
2017-01-23T08:04:32.348Z,15.16
2017-01-23T08:05:41.321Z,15.19
2017-01-23T08:06:50.311Z,15.21
2017-01-23T08:07:59.388Z,15.28
2017-01-23T08:09:08.383Z,15.28
2017-01-23T08:10:17.370Z,15.26
2017-01-23T08:11:26.346Z,15.27
2017-01-23T08:12:35.329Z,15.33
2017-01-23T08:13:44.322Z,15.3
2017-01-23T08:14:53.314Z,15.3
2017-01-23T08:16:02.292Z,15.34
2017-01-23T08:17:11.277Z,15.36
2017-01-23T08:18:20.277Z,15.28
2017-01-23T08:19:29.249Z,15.36
2017-01-23T08:20:38.274Z,15.34
2017-01-23T08:21:47.258Z,15.34
2017-01-23T08:22:56.243Z,15.33
2017-01-23T08:24:05.234Z,15.34
2017-01-23T08:25:14.219Z,15.34
2017-01-23T08:26:23.208Z,15.36
2017-01-23T08:27:32.193Z,15.41
2017-01-23T08:28:41.193Z,15.45
2017-01-23T08:29:50.176Z,15.48
2017-01-23T08:30:59.167Z,15.51
2017-01-23T08:32:08.160Z,15.38
2017-01-23T08:33:17.142Z,15.34
2017-01-23T08:34:26.148Z,15.37
2017-01-23T08:35:35.134Z,15.44
2017-01-23T08:36:44.126Z,15.41
2017-01-23T08:37:53.118Z,15.48
2017-01-23T08:39:02.110Z,15.41
2017-01-23T08:40:11.087Z,15.23
2017-01-23T08:41:20.065Z,15.12
2017-01-23T08:42:29.061Z,15.05
2017-01-23T08:43:38.043Z,14.97
2017-01-23T08:44:47.063Z,14.87
2017-01-23T08:45:56.041Z,14.86
2017-01-23T08:47:05.023Z,14.78
2017-01-23T08:48:14.004Z,14.63
2017-01-23T08:49:22.998Z,14.67
2017-01-23T08:50:31.986Z,14.59
2017-01-23T08:51:40.998Z,14.57
2017-01-23T08:52:50.065Z,14.57
2017-01-23T08:53:59.061Z,14.12
2017-01-23T08:55:08.063Z,12.85
2017-01-23T08:56:17.058Z,11.86
2017-01-23T08:57:26.049Z,11.4
2017-01-23T08:58:35.028Z,10.84
2017-01-23T08:59:44.016Z,10.71
2017-01-23T09:00:52.999Z,11.01
2017-01-23T09:02:02.025Z,10.99
2017-01-23T09:03:11.015Z,11.05
2017-01-23T09:04:20.003Z,11.08
2017-01-23T09:05:28.986Z,10.86
2017-01-23T09:06:37.962Z,10.59
2017-01-23T09:07:46.941Z,10.42
2017-01-23T09:08:55.930Z,10.36
2017-01-23T09:10:04.937Z,10.4
2017-01-23T09:11:13.919Z,10.42
2017-01-23T09:12:22.892Z,10.4
2017-01-23T09:13:31.885Z,10.45
2017-01-23T09:14:40.913Z,10.2
2017-01-23T09:15:49.902Z,10.17
2017-01-23T09:16:58.916Z,10.07
2017-01-23T09:18:07.895Z,10.12
2017-01-23T09:19:16.874Z,9.81
2017-01-23T09:20:25.856Z,9.73
2017-01-23T09:21:34.956Z,9.76
2017-01-23T09:22:43.996Z,9.82
2017-01-23T09:23:53.287Z,9.76
2017-01-23T09:25:02.258Z,9.58
2017-01-23T09:26:11.242Z,9.63
2017-01-23T09:27:20.236Z,9.76
2017-01-23T09:28:29.228Z,9.67
2017-01-23T09:29:38.204Z,9.59
2017-01-23T09:30:47.185Z,9.62
2017-01-23T09:31:56.162Z,9.62
2017-01-23T09:33:05.137Z,9.59
2017-01-23T09:34:14.133Z,9.59
2017-01-23T09:35:23.110Z,9.52
2017-01-23T09:36:32.077Z,9.45
2017-01-23T09:37:41.069Z,9.3
2017-01-23T09:38:50.052Z,9.33
2017-01-23T09:39:59.040Z,9.31
2017-01-23T09:41:08.016Z,9.37
2017-01-23T09:42:17.004Z,9.3
2017-01-23T09:43:25.983Z,9.18
2017-01-23T09:44:34.962Z,8.99
2017-01-23T09:45:43.943Z,9.12
2017-01-23T09:46:52.930Z,9.09
2017-01-23T09:48:01.913Z,9.04
2017-01-23T09:49:10.898Z,8.99
2017-01-23T09:50:19.888Z,8.9
2017-01-23T09:51:28.873Z,8.87
2017-01-23T09:52:37.852Z,8.89
2017-01-23T09:53:46.830Z,8.82
2017-01-23T09:54:55.823Z,8.84
2017-01-23T09:56:04.799Z,8.6
2017-01-23T09:57:13.791Z,8.61
2017-01-23T09:58:22.776Z,8.71
2017-01-23T09:59:31.761Z,8.67
2017-01-23T10:00:40.748Z,8.64
2017-01-23T10:01:49.724Z,8.63
2017-01-23T10:02:58.708Z,8.63
2017-01-23T10:04:07.692Z,8.45
2017-01-23T10:05:16.682Z,8.36
2017-01-23T10:06:25.664Z,8.29
2017-01-23T10:07:34.641Z,8.43
2017-01-23T10:08:43.633Z,8.42
2017-01-23T10:09:52.606Z,8.34
2017-01-23T10:11:01.606Z,8.32
2017-01-23T10:12:10.586Z,8.43
2017-01-23T10:13:19.564Z,8.42
2017-01-23T10:14:28.547Z,8.43
2017-01-23T10:15:37.533Z,8.46
2017-01-23T10:16:46.520Z,8.36
2017-01-23T10:17:55.511Z,8.23
2017-01-23T10:19:04.490Z,8.09
2017-01-23T10:20:13.456Z,8.08
2017-01-23T10:21:22.439Z,8
2017-01-23T10:22:31.426Z,8.09
2017-01-23T10:23:40.414Z,8.86
2017-01-23T10:24:49.423Z,9.38
2017-01-23T10:25:58.431Z,9.67
2017-01-23T10:27:07.415Z,9.85
2017-01-23T10:28:16.400Z,10.07
2017-01-23T10:29:25.384Z,10.17
2017-01-23T10:30:34.392Z,10.18
2017-01-23T10:31:43.365Z,10.3
2017-01-23T10:32:52.358Z,10.27
2017-01-23T10:34:01.326Z,10.32
2017-01-23T10:35:10.311Z,10.2
2017-01-23T10:36:19.284Z,10.25
2017-01-23T10:37:28.274Z,10.32
2017-01-23T10:38:37.277Z,10.21
2017-01-23T10:39:46.264Z,10.27
2017-01-23T10:40:55.272Z,10.07
2017-01-23T10:42:04.250Z,10.18
2017-01-23T10:43:13.238Z,10.36
2017-01-23T10:44:22.215Z,10.38
2017-01-23T10:45:31.204Z,10.45
2017-01-23T10:46:40.193Z,10.55
2017-01-23T10:47:49.174Z,10.65
2017-01-23T10:48:58.150Z,10.64
2017-01-23T10:50:07.545Z,10.64
2017-01-23T10:51:16.522Z,10.64
2017-01-23T10:52:25.835Z,10.79
2017-01-23T10:53:34.825Z,10.77
2017-01-23T10:54:43.813Z,10.8
2017-01-23T10:55:52.808Z,10.79
2017-01-23T10:57:01.795Z,10.83
2017-01-23T10:58:10.775Z,10.82
2017-01-23T10:59:19.767Z,10.8
2017-01-23T11:00:28.752Z,10.89
2017-01-23T11:01:37.727Z,10.9
2017-01-23T11:02:46.719Z,10.99
2017-01-23T11:03:55.733Z,10.92
2017-01-23T11:05:04.713Z,10.82
2017-01-23T11:06:13.686Z,10.84
2017-01-23T11:07:22.678Z,10.97
2017-01-23T11:08:31.670Z,10.86
2017-01-23T11:09:40.641Z,10.87
2017-01-23T11:10:49.663Z,10.9
2017-01-23T11:11:58.653Z,10.98
2017-01-23T11:13:07.634Z,10.97
2017-01-23T11:14:16.620Z,11.08
2017-01-23T11:15:25.597Z,11.13
2017-01-23T11:16:34.583Z,11.05
2017-01-23T11:17:43.580Z,11.02
2017-01-23T11:18:52.565Z,10.95
2017-01-23T11:20:01.559Z,11.05
2017-01-23T11:21:10.535Z,10.95
2017-01-23T11:22:19.516Z,10.89
2017-01-23T11:23:28.497Z,10.97
2017-01-23T11:24:37.481Z,11.08
2017-01-23T11:25:46.467Z,11.04
2017-01-23T11:26:55.435Z,10.99
2017-01-23T11:28:04.430Z,11.05
2017-01-23T11:29:13.405Z,11.05
2017-01-23T11:30:22.394Z,11.05
2017-01-23T11:31:31.376Z,11.01
2017-01-23T11:32:40.357Z,11.15
2017-01-23T11:33:49.328Z,11.12
2017-01-23T11:34:58.318Z,11.2
2017-01-23T11:36:07.317Z,11.17
2017-01-23T11:37:16.311Z,11.07
2017-01-23T11:38:25.303Z,11.12
2017-01-23T11:39:34.280Z,11.17
2017-01-23T11:40:43.267Z,11.08
2017-01-23T11:41:52.261Z,11.19
2017-01-23T11:43:01.251Z,11.07
2017-01-23T11:44:10.232Z,11.17
2017-01-23T11:45:19.215Z,11.07
2017-01-23T11:46:28.195Z,11.07
2017-01-23T11:47:37.190Z,11.1
2017-01-23T11:48:46.183Z,11.12
2017-01-23T11:49:55.160Z,11.08
2017-01-23T11:51:04.152Z,10.97
2017-01-23T11:52:13.123Z,11.15
2017-01-23T11:53:22.108Z,11.13
2017-01-23T11:54:31.092Z,11.08
2017-01-23T11:55:40.083Z,11.07
2017-01-23T11:56:49.070Z,11.04
2017-01-23T11:57:58.052Z,11.01
2017-01-23T11:59:07.029Z,11.07
2017-01-23T12:00:16.010Z,11.1
2017-01-23T12:01:25.004Z,11.07
2017-01-23T12:02:33.990Z,11.08
2017-01-23T12:03:42.972Z,11.04
2017-01-23T12:04:51.949Z,10.99
2017-01-23T12:06:00.935Z,11.07
2017-01-23T12:07:09.918Z,11.1
2017-01-23T12:08:18.897Z,11.01
2017-01-23T12:09:27.884Z,11.02
2017-01-23T12:10:36.866Z,11.04
2017-01-23T12:11:45.861Z,11.07
2017-01-23T12:12:54.838Z,11.19
2017-01-23T12:14:03.835Z,11.16
2017-01-23T12:15:12.808Z,11.23
2017-01-23T12:16:21.795Z,11.1
2017-01-23T12:17:30.809Z,11.44
2017-01-23T12:18:39.806Z,11.97
2017-01-23T12:19:48.793Z,12.33
2017-01-23T12:20:57.768Z,12.47
2017-01-23T12:22:06.744Z,12.58
2017-01-23T12:23:15.738Z,12.67
2017-01-23T12:24:24.712Z,12.74
2017-01-23T12:25:33.682Z,12.8
2017-01-23T12:26:42.667Z,12.81
2017-01-23T12:27:51.645Z,13.03
2017-01-23T12:29:00.684Z,13.06
2017-01-23T12:30:09.665Z,13.18
2017-01-23T12:31:18.649Z,13.12
2017-01-23T12:32:27.621Z,13.2
2017-01-23T12:33:36.613Z,13.28
2017-01-23T12:34:46.034Z,13.37
2017-01-23T12:35:55.025Z,13.3
2017-01-23T12:37:04.008Z,13.31
2017-01-23T12:38:12.987Z,13.43
2017-01-23T12:39:21.961Z,13.41
2017-01-23T12:40:30.984Z,13.46
2017-01-23T12:41:39.966Z,13.49
2017-01-23T12:42:48.951Z,13.46
2017-01-23T12:43:57.941Z,13.51
2017-01-23T12:45:06.931Z,13.66
2017-01-23T12:46:15.908Z,13.69
2017-01-23T12:47:24.887Z,13.62
2017-01-23T12:48:33.876Z,13.79
2017-01-23T12:49:42.863Z,13.8
2017-01-23T12:50:51.856Z,13.79
2017-01-23T12:52:00.832Z,13.8
2017-01-23T12:53:09.811Z,13.86
2017-01-23T12:54:18.792Z,13.83
2017-01-23T12:55:27.780Z,13.98
2017-01-23T12:56:36.762Z,13.97
2017-01-23T12:57:48.129Z,14.02
2017-01-23T12:58:57.137Z,13.99
2017-01-23T13:00:06.114Z,14.1
2017-01-23T13:01:15.132Z,14.2
2017-01-23T13:02:24.128Z,14.1
2017-01-23T13:03:33.103Z,14.1
2017-01-23T13:04:42.104Z,14.22
2017-01-23T13:05:51.696Z,14.35
2017-01-23T13:07:00.857Z,14.3
2017-01-23T13:08:10.747Z,14.3
2017-01-23T13:09:20.319Z,14.39
2017-01-23T13:10:29.394Z,14.5
2017-01-23T13:11:38.476Z,14.5
2017-01-23T13:12:47.675Z,14.62
2017-01-23T13:13:56.740Z,14.57
2017-01-23T13:15:05.771Z,14.6
2017-01-23T13:16:15.040Z,14.68
2017-01-23T13:17:24.485Z,14.65
2017-01-23T13:18:33.860Z,14.68
2017-01-23T13:19:43.004Z,14.63
2017-01-23T13:20:52.740Z,14.65
2017-01-23T13:22:03.197Z,14.87
2017-01-23T13:23:12.280Z,14.8
2017-01-23T13:24:21.304Z,14.87
2017-01-23T13:25:30.345Z,14.93
2017-01-23T13:26:39.735Z,14.86
2017-01-23T13:27:48.729Z,14.93
2017-01-23T13:28:57.716Z,15
2017-01-23T13:30:06.809Z,15.05
2017-01-23T13:31:15.955Z,15.06
2017-01-23T13:32:25.396Z,15.01
2017-01-23T13:33:34.436Z,15.05
2017-01-23T13:34:43.437Z,15.06
2017-01-23T13:35:52.582Z,15.11
2017-01-23T13:37:01.660Z,15.13
2017-01-23T13:38:10.649Z,15.15
2017-01-23T13:39:19.634Z,15.26
2017-01-23T13:40:29.032Z,15.12
2017-01-23T13:41:41.391Z,15.24
2017-01-23T13:42:50.531Z,15.24
2017-01-23T13:43:59.506Z,15.27
2017-01-23T13:45:08.482Z,15.36
2017-01-23T13:46:17.462Z,15.37
2017-01-23T13:47:26.703Z,15.37
2017-01-23T13:48:35.693Z,15.38
2017-01-23T13:49:44.730Z,15.38
2017-01-23T13:50:53.746Z,15.38
2017-01-23T13:52:02.719Z,15.44
2017-01-23T13:53:11.705Z,15.55
2017-01-23T13:54:20.695Z,15.53
2017-01-23T13:55:29.899Z,15.52
2017-01-23T13:56:38.881Z,15.51
2017-01-23T13:57:48.058Z,15.51
2017-01-23T13:58:57.062Z,15.61
2017-01-23T14:00:06.045Z,15.61
2017-01-23T14:01:15.083Z,15.66
2017-01-23T14:02:24.178Z,15.61
2017-01-23T14:03:33.161Z,15.67
2017-01-23T14:04:42.531Z,15.7
2017-01-23T14:05:51.929Z,15.69
2017-01-23T14:07:01.048Z,15.78
2017-01-23T14:08:10.123Z,15.76
2017-01-23T14:09:19.134Z,15.71
2017-01-23T14:10:28.112Z,15.84
2017-01-23T14:11:38.741Z,15.86
2017-01-23T14:13:19.960Z,15.89
2017-01-23T14:14:29.830Z,15.86
2017-01-23T14:15:38.807Z,15.89
2017-01-23T14:16:47.887Z,15.96
2017-01-23T14:17:56.897Z,15.96
2017-01-23T14:19:05.893Z,15.86
2017-01-23T14:20:14.886Z,16.04
2017-01-23T14:21:23.884Z,16
2017-01-23T14:22:32.883Z,16.04
2017-01-23T14:23:44.366Z,16.01
2017-01-23T14:25:26.010Z,16.15
2017-01-23T14:26:36.073Z,16.09
2017-01-23T14:27:47.733Z,16.09
2017-01-23T14:28:57.259Z,16.23
2017-01-23T14:30:06.441Z,16.22
2017-01-23T14:31:15.774Z,16.22
2017-01-23T14:32:24.772Z,16.25
2017-01-23T14:33:34.038Z,16.3
2017-01-23T14:34:43.652Z,16.25
2017-01-23T14:35:52.906Z,16.2
2017-01-23T14:37:01.895Z,16.32
2017-01-23T14:38:11.035Z,16.32
2017-01-23T14:39:20.127Z,16.3
2017-01-23T14:40:29.111Z,16.27
2017-01-23T14:41:38.153Z,16.35
2017-01-23T14:42:47.132Z,16.34
2017-01-23T14:43:56.132Z,16.35
2017-01-23T14:45:05.120Z,16.4
2017-01-23T14:46:14.092Z,16.45
2017-01-23T14:47:23.191Z,16.47
2017-01-23T14:48:32.206Z,16.42
2017-01-23T14:49:41.192Z,16.53
2017-01-23T14:50:50.207Z,16.5
2017-01-23T14:51:59.275Z,16.55
2017-01-23T14:53:08.928Z,16.5
2017-01-23T14:54:18.172Z,16.5
2017-01-23T14:55:27.428Z,16.63
2017-01-23T14:56:36.773Z,16.53